createdAt,value
2022-12-15T02:54:30.743Z,92.6
2022-12-15T02:57:30.076Z,96.1
2022-12-15T02:58:45.492Z,96.9
2022-12-15T03:00:01.845Z,96.9
2022-12-15T03:01:17.281Z,96.8
2022-12-15T03:02:32.668Z,96.8
2022-12-15T03:03:49.029Z,96.6
2022-12-15T03:05:05.385Z,96.4
2022-12-15T03:06:20.819Z,96.2
2022-12-15T03:07:36.214Z,96
2022-12-15T03:08:52.589Z,95.8
2022-12-15T03:10:08.935Z,95.7
2022-12-15T03:11:25.298Z,95.9
2022-12-15T03:12:40.670Z,96
2022-12-15T03:13:55.973Z,95.8
2022-12-15T03:15:12.273Z,95.6
2022-12-15T03:16:28.563Z,95.4
2022-12-15T03:17:44.870Z,95.3
2022-12-15T03:25:22.636Z,96.1
2022-12-15T03:26:38.940Z,96.2
2022-12-15T03:27:55.241Z,96.3
2022-12-15T03:29:11.525Z,96.3
2022-12-15T03:30:26.834Z,96.4
2022-12-15T03:31:43.143Z,96.6
2022-12-15T03:32:58.449Z,96.6
2022-12-15T03:34:13.772Z,96.6
2022-12-15T03:35:30.064Z,96.5
2022-12-15T03:36:46.369Z,96.4
2022-12-15T03:38:02.647Z,96.4
2022-12-15T03:39:18.941Z,96.4
2022-12-15T03:40:35.251Z,96.3
2022-12-15T03:41:51.549Z,96.3
2022-12-15T03:43:07.831Z,96.4
2022-12-15T03:44:24.141Z,96.5
2022-12-15T03:45:40.426Z,96.3
2022-12-15T03:46:55.756Z,96.3
2022-12-15T03:48:11.064Z,96.1
2022-12-15T03:49:27.353Z,96
2022-12-15T03:50:43.652Z,95.8
2022-12-15T03:51:59.000Z,95.6
2022-12-15T03:53:16.253Z,95.6
2022-12-15T03:54:32.547Z,95.7
2022-12-15T03:55:48.838Z,96
2022-12-15T03:57:05.144Z,96
2022-12-15T03:58:21.433Z,96.2
2022-12-15T03:59:37.720Z,96.3
2022-12-15T04:00:54.018Z,96.5
2022-12-15T04:02:10.452Z,96.7
2022-12-15T04:03:25.777Z,96.8
2022-12-15T04:04:42.067Z,96.9
2022-12-15T04:05:58.368Z,96.8
2022-12-15T04:07:14.661Z,96.5
2022-12-15T04:08:30.953Z,96.5
2022-12-15T04:09:47.258Z,96.5
2022-12-15T04:11:03.558Z,96.3
2022-12-15T04:12:19.847Z,96.1
2022-12-15T04:13:36.143Z,95.8
2022-12-15T04:14:52.429Z,95.7
2022-12-15T04:16:08.739Z,95.4
2022-12-15T04:17:25.025Z,95.2
2022-12-15T04:18:41.322Z,95
2022-12-15T04:19:56.645Z,94.7
2022-12-15T04:21:12.939Z,94.8
2022-12-15T04:22:29.241Z,95.2
2022-12-15T04:23:45.526Z,95.4
2022-12-15T04:25:01.825Z,95.4
2022-12-15T04:26:18.114Z,95.2
2022-12-15T04:27:34.432Z,95.1
2022-12-15T04:28:50.712Z,95
2022-12-15T04:30:07.009Z,94.8
2022-12-15T04:31:23.312Z,94.6
2022-12-15T04:32:39.602Z,94.5
2022-12-15T04:33:55.903Z,94.1
2022-12-15T04:35:12.200Z,93.9
2022-12-15T04:36:27.503Z,94
2022-12-15T04:37:43.799Z,93.7
2022-12-15T04:39:00.100Z,93.1
2022-12-15T04:40:16.389Z,93.2
2022-12-15T04:41:32.686Z,93.4
2022-12-15T04:42:48.986Z,93.7
2022-12-15T04:44:05.292Z,93.7
2022-12-15T04:45:21.580Z,93.7
2022-12-15T04:46:37.878Z,93.2
2022-12-15T04:47:54.173Z,93.2
2022-12-15T04:49:10.000Z,93.5
2022-12-15T04:50:26.769Z,93.7
2022-12-15T04:51:43.052Z,93.9
2022-12-15T04:52:58.373Z,94
2022-12-15T04:54:14.674Z,94
2022-12-15T04:55:30.973Z,93.7
2022-12-15T04:56:47.256Z,93.6
2022-12-15T04:58:03.557Z,93.7
2022-12-15T04:59:19.862Z,93.7
2022-12-15T05:01:52.452Z,93.8
2022-12-15T05:03:08.735Z,93.6
2022-12-15T05:04:25.036Z,93.2
2022-12-15T05:05:41.333Z,92.2
2022-12-15T05:06:57.627Z,92.2
2022-12-15T05:08:13.918Z,92.3
2022-12-15T05:09:29.238Z,92.3
2022-12-15T05:10:45.525Z,92
2022-12-15T05:12:01.835Z,91.7
2022-12-15T05:13:18.130Z,91.9
2022-12-15T05:14:34.418Z,91.9
2022-12-15T05:17:07.026Z,91.6
2022-12-15T05:18:23.309Z,90.8
2022-12-15T05:19:39.616Z,89.6
2022-12-15T05:20:55.906Z,89
2022-12-15T05:22:12.200Z,88
2022-12-15T05:23:28.495Z,87.6
2022-12-15T05:24:44.799Z,87.2
2022-12-15T05:26:00.102Z,87.9
2022-12-15T05:27:16.399Z,89.5
2022-12-15T05:28:32.687Z,90.7
2022-12-15T05:29:49.003Z,91.5
2022-12-15T05:31:05.297Z,91.8
2022-12-15T05:32:21.585Z,91.8
2022-12-15T05:34:54.183Z,92.3
2022-12-15T05:36:10.470Z,92.7
2022-12-15T05:37:26.778Z,92.3
2022-12-15T05:38:43.063Z,90.5
2022-12-15T05:39:59.366Z,90.1
2022-12-15T05:41:15.667Z,90.6
2022-12-15T05:42:30.965Z,91
2022-12-15T05:43:47.260Z,91.3
2022-12-15T05:45:03.575Z,91.4
2022-12-15T05:46:19.857Z,91.6
2022-12-15T05:47:36.151Z,91.4
2022-12-15T05:48:52.453Z,91.5
2022-12-15T05:50:08.757Z,91.2
2022-12-15T05:51:25.040Z,90.9
2022-12-15T05:52:41.333Z,90.4
2022-12-15T05:53:57.629Z,90.3
2022-12-15T05:55:13.944Z,90.7
2022-12-15T05:56:30.224Z,90.8
2022-12-15T05:57:46.520Z,90.6
2022-12-15T05:59:01.835Z,90
2022-12-15T06:00:18.145Z,90
2022-12-15T06:01:34.424Z,90.8
2022-12-15T06:02:50.739Z,90.6
2022-12-15T06:04:07.032Z,90.5
2022-12-15T06:05:23.320Z,90.5
2022-12-15T06:06:39.610Z,91.1
2022-12-15T06:07:55.928Z,91.3
2022-12-15T06:09:12.220Z,91.8
2022-12-15T06:10:28.510Z,92.2
2022-12-15T06:11:44.815Z,92.7
2022-12-15T06:13:01.109Z,93
2022-12-15T06:14:17.395Z,93.1
2022-12-15T06:15:32.700Z,92.5
2022-12-15T06:16:49.009Z,91.2
2022-12-15T06:18:05.302Z,90.6
2022-12-15T06:19:21.600Z,90
2022-12-15T06:20:37.889Z,90.6
2022-12-15T06:21:54.183Z,90.7
2022-12-15T06:23:10.509Z,91.7
2022-12-15T06:25:43.085Z,93.8
2022-12-15T06:26:59.369Z,94.2
2022-12-15T06:28:15.621Z,93.8
2022-12-15T06:29:31.925Z,93.1
2022-12-15T06:30:48.202Z,92.3
2022-12-15T06:33:19.721Z,91.3
2022-12-15T06:34:36.022Z,91
2022-12-15T06:35:52.280Z,91.6
2022-12-15T06:37:08.511Z,91.8
2022-12-15T06:38:24.763Z,91.7
2022-12-15T06:39:41.011Z,92.1
2022-12-15T06:40:57.250Z,92.7
2022-12-15T06:42:13.495Z,93.5
2022-12-15T06:43:29.736Z,94.2
2022-12-15T06:44:45.992Z,94.7
2022-12-15T06:46:02.225Z,94.8
2022-12-15T06:47:18.462Z,94.7
2022-12-15T06:48:33.727Z,94.7
2022-12-15T06:49:49.968Z,94.6
2022-12-15T06:51:06.203Z,94.5
2022-12-15T06:52:22.451Z,94.8
2022-12-15T06:53:38.685Z,94.7
2022-12-15T06:54:54.937Z,94
2022-12-15T06:56:11.171Z,92.9
2022-12-15T06:57:27.420Z,92.3
2022-12-15T06:58:43.657Z,92
2022-12-15T06:59:59.916Z,92.1
2022-12-15T07:01:16.148Z,92.1
2022-12-15T07:03:48.627Z,93.1
2022-12-15T07:05:03.892Z,94
2022-12-15T07:06:20.129Z,94.4
2022-12-15T07:07:36.365Z,94.5
2022-12-15T07:08:52.618Z,94
2022-12-15T07:10:08.850Z,93.8
2022-12-15T07:11:25.107Z,93.3
2022-12-15T07:12:40.373Z,92.8
2022-12-15T07:13:56.610Z,93
2022-12-15T07:15:12.849Z,93
2022-12-15T07:16:29.095Z,92.9
2022-12-15T07:17:45.337Z,93.6
2022-12-15T07:19:01.576Z,94.2
2022-12-15T07:20:17.825Z,95
2022-12-15T07:21:34.054Z,95.2
2022-12-15T07:22:50.302Z,95.5
2022-12-15T07:24:06.548Z,95.8
2022-12-15T07:26:39.034Z,95.7
2022-12-15T07:27:55.276Z,95.6
2022-12-15T07:29:10.533Z,95.4
2022-12-15T07:30:26.771Z,94.7
2022-12-15T07:31:43.014Z,94.4
2022-12-15T07:32:59.257Z,94.6
2022-12-15T07:34:15.496Z,94.8
2022-12-15T07:35:31.750Z,94.9
2022-12-15T07:36:47.980Z,94.9
2022-12-15T07:38:04.226Z,95
2022-12-15T07:39:20.478Z,95.1
2022-12-15T07:40:36.703Z,95.2
2022-12-15T07:41:52.951Z,95.2
2022-12-15T07:43:09.199Z,95.3
2022-12-15T07:44:25.429Z,95.3
2022-12-15T07:45:40.692Z,95.2
2022-12-15T07:46:56.941Z,95
2022-12-15T07:48:13.186Z,94.8
2022-12-15T07:49:29.426Z,95
2022-12-15T07:50:45.673Z,95.2
2022-12-15T07:52:01.907Z,95.2
2022-12-15T07:53:18.149Z,95.2
2022-12-15T07:54:34.394Z,95
2022-12-15T07:55:50.637Z,95
2022-12-15T07:57:06.877Z,94.9
2022-12-15T07:58:23.121Z,94.8
2022-12-15T07:59:39.359Z,94.8
2022-12-15T08:00:55.614Z,94.8
2022-12-15T08:02:10.864Z,95.2
2022-12-15T08:03:26.117Z,95.6
2022-12-15T08:04:42.377Z,96
2022-12-15T08:05:58.618Z,96.2
2022-12-15T08:07:14.863Z,96.4
2022-12-15T08:08:31.104Z,96.6
2022-12-15T08:09:47.342Z,96.6
2022-12-15T08:12:19.827Z,96.6
2022-12-15T08:13:36.055Z,96.6
2022-12-15T08:14:52.316Z,96.7
2022-12-15T08:16:08.555Z,96.6
2022-12-15T08:17:24.789Z,96.6
2022-12-15T08:18:41.030Z,96.6
2022-12-15T08:19:56.296Z,96.5
2022-12-15T08:21:12.524Z,96.4
2022-12-15T08:22:28.782Z,96.3
2022-12-15T08:23:45.015Z,96.3
2022-12-15T08:25:01.250Z,96.2
2022-12-15T08:27:33.740Z,95.9
2022-12-15T08:28:48.999Z,95.8
2022-12-15T08:30:04.271Z,95.5
2022-12-15T08:31:20.499Z,95.7
2022-12-15T08:32:36.743Z,95.8
2022-12-15T08:33:52.986Z,95.9
2022-12-15T08:35:09.241Z,95.9
2022-12-15T08:36:25.473Z,96
2022-12-15T08:37:41.728Z,96.1
2022-12-15T08:38:57.951Z,95.9
2022-12-15T08:40:14.204Z,95.9
2022-12-15T08:41:30.449Z,95.9
2022-12-15T08:42:45.703Z,96
2022-12-15T08:44:00.958Z,96.2
2022-12-15T08:45:17.209Z,96.2
2022-12-15T08:46:33.440Z,96.1
2022-12-15T08:47:49.686Z,96.1
2022-12-15T08:49:05.942Z,96.1
2022-12-15T08:50:22.182Z,96.2
2022-12-15T08:51:38.424Z,96.3
2022-12-15T08:52:54.662Z,96.3
2022-12-15T08:54:10.906Z,96.3
2022-12-15T08:55:27.135Z,96.3
2022-12-15T08:57:59.632Z,96.3
2022-12-15T08:59:15.861Z,96.3
2022-12-15T09:00:31.123Z,96.4
2022-12-15T09:01:47.364Z,96.2
2022-12-15T09:03:03.617Z,96.2
2022-12-15T09:04:19.853Z,96.3
2022-12-15T09:05:36.094Z,96.3
2022-12-15T09:06:52.330Z,96
2022-12-15T09:08:08.579Z,96
2022-12-15T09:09:24.818Z,96
2022-12-15T09:10:41.063Z,96
2022-12-15T09:11:57.313Z,96
2022-12-15T09:13:13.556Z,96
2022-12-15T09:14:29.788Z,96
2022-12-15T09:15:46.038Z,95.8
2022-12-15T09:17:01.289Z,95.4
2022-12-15T09:18:17.533Z,95.1
2022-12-15T09:19:33.776Z,95.3
2022-12-15T09:20:50.021Z,95.7
2022-12-15T09:22:06.260Z,95.8
2022-12-15T09:23:22.504Z,96.2
2022-12-15T09:24:38.744Z,96.6
2022-12-15T09:25:54.992Z,97
2022-12-15T09:27:11.231Z,97.2
2022-12-15T09:28:27.458Z,97.2
2022-12-15T09:29:43.699Z,97.2
2022-12-15T09:30:59.957Z,97.1
2022-12-15T09:32:16.201Z,96.8
2022-12-15T09:33:31.457Z,96.8
2022-12-15T09:34:47.700Z,96.9
2022-12-15T09:36:03.940Z,96.7
2022-12-15T09:37:20.184Z,96.7
2022-12-15T09:38:36.420Z,96.6
2022-12-15T09:39:52.666Z,96.5
2022-12-15T09:41:08.892Z,96.5
2022-12-15T09:42:25.151Z,96.6
2022-12-15T09:43:41.379Z,96.6
2022-12-15T09:44:57.616Z,96.4
2022-12-15T09:46:13.878Z,96.1
2022-12-15T09:47:30.099Z,96.2
2022-12-15T09:48:46.360Z,96.3
2022-12-15T09:50:01.617Z,96.2
2022-12-15T09:51:17.849Z,96
2022-12-15T09:52:34.092Z,95.9
2022-12-15T09:53:50.344Z,96
2022-12-15T09:55:06.580Z,96
2022-12-15T09:56:22.815Z,95.9
2022-12-15T09:58:55.296Z,96.2
2022-12-15T10:00:11.546Z,96.4
2022-12-15T10:01:27.783Z,96.3
2022-12-15T10:02:44.016Z,96.3
2022-12-15T10:04:00.271Z,96.5
2022-12-15T10:06:32.761Z,96.2
2022-12-15T10:07:48.002Z,96
2022-12-15T10:09:04.251Z,96
2022-12-15T10:10:20.492Z,96
2022-12-15T10:11:36.727Z,96
2022-12-15T10:12:52.983Z,95.7
2022-12-15T10:14:09.207Z,95.5
2022-12-15T10:15:25.463Z,95.2
2022-12-15T10:16:41.704Z,95.3
2022-12-15T10:17:57.953Z,95.2
2022-12-15T10:19:14.190Z,95.2
2022-12-15T10:21:46.677Z,94.8
2022-12-15T10:23:01.927Z,94.7
2022-12-15T10:24:17.192Z,94.8
2022-12-15T10:25:33.427Z,94.6
2022-12-15T10:26:49.678Z,94.5
2022-12-15T10:28:05.921Z,94.8
2022-12-15T10:29:22.152Z,94.9
2022-12-15T10:30:38.396Z,94.7
2022-12-15T10:31:54.639Z,94.8
2022-12-15T10:33:10.869Z,94.7
2022-12-15T10:34:27.127Z,94.6
2022-12-15T10:36:59.601Z,94.1
2022-12-15T10:38:15.853Z,93.8
2022-12-15T10:39:32.097Z,93.8
2022-12-15T10:40:47.338Z,93.9
2022-12-15T10:42:03.586Z,93.9
2022-12-15T10:43:19.836Z,93.8
2022-12-15T10:44:36.060Z,94
2022-12-15T10:45:52.299Z,94
2022-12-15T10:47:08.553Z,93.8
2022-12-15T10:48:24.792Z,93.8
2022-12-15T10:49:41.032Z,93.7
2022-12-15T10:50:56.291Z,93.5
2022-12-15T10:52:11.558Z,93.6
2022-12-15T10:53:27.790Z,93.8
2022-12-15T10:54:44.049Z,93.4
2022-12-15T10:56:00.274Z,93
2022-12-15T10:57:16.516Z,92.8
2022-12-15T10:59:49.012Z,93.1
2022-12-15T11:02:21.497Z,93
2022-12-15T11:03:37.725Z,93.1
2022-12-15T11:04:53.975Z,92.6
2022-12-15T11:07:26.462Z,92.2
2022-12-15T11:08:41.719Z,91.6
2022-12-15T11:09:56.981Z,91.5
2022-12-15T11:11:13.210Z,91.3
2022-12-15T11:12:29.462Z,91.5
2022-12-15T11:13:45.694Z,91.8
2022-12-15T11:15:01.937Z,91.8
2022-12-15T11:16:18.178Z,91.7
2022-12-15T11:17:34.426Z,91.7
2022-12-15T11:18:50.669Z,91.5
2022-12-15T11:20:06.909Z,91.7
2022-12-15T11:22:39.381Z,91.2
2022-12-15T11:23:55.614Z,91.2
2022-12-15T11:25:11.883Z,90.9
2022-12-15T11:26:27.122Z,90.8
2022-12-15T11:27:42.393Z,90.8
2022-12-15T11:28:58.629Z,90.5
2022-12-15T11:30:14.869Z,90.2
2022-12-15T11:31:31.113Z,89.8
2022-12-15T11:32:47.355Z,89.9
2022-12-15T11:34:03.593Z,90.2
2022-12-15T11:35:19.832Z,89.9
2022-12-15T11:37:52.324Z,89.3
2022-12-15T11:39:08.569Z,89.6
2022-12-15T11:40:24.813Z,89.4
2022-12-15T11:41:41.045Z,89.7
2022-12-15T11:42:57.296Z,89.6
2022-12-15T11:44:12.541Z,89.7
2022-12-15T11:45:28.798Z,89.8
2022-12-15T11:46:45.027Z,89.8
2022-12-15T11:48:01.275Z,89.6
2022-12-15T11:49:16.536Z,90.1
2022-12-15T11:50:31.789Z,90
2022-12-15T11:51:48.041Z,89.3
2022-12-15T11:53:04.272Z,88.7
2022-12-15T11:54:20.524Z,88.5
2022-12-15T11:55:36.767Z,88.1
2022-12-15T11:56:53.005Z,87.8
2022-12-15T11:58:09.243Z,87.7
2022-12-15T11:59:25.477Z,87.8
2022-12-15T12:00:41.722Z,87.8
2022-12-15T12:01:57.967Z,88
2022-12-15T12:03:14.211Z,88.1
2022-12-15T12:04:30.452Z,87.8
2022-12-15T12:05:46.698Z,87.2
2022-12-15T12:07:03.063Z,87.3
2022-12-15T12:08:19.292Z,87.6
2022-12-15T12:09:35.526Z,87.2
2022-12-15T12:10:51.770Z,87
2022-12-15T12:12:08.012Z,87.1
2022-12-15T12:13:24.261Z,86.8
2022-12-15T12:15:56.749Z,86.2
2022-12-15T12:17:12.982Z,87
2022-12-15T12:18:29.228Z,86.7
2022-12-15T12:19:45.458Z,86.9
2022-12-15T12:21:01.707Z,86.4
2022-12-15T12:22:17.948Z,86.5
2022-12-15T12:23:33.203Z,86.5
2022-12-15T12:24:49.438Z,86.2
2022-12-15T12:26:05.680Z,86
2022-12-15T12:27:21.922Z,86.2
2022-12-15T12:28:38.175Z,86.2
2022-12-15T12:29:54.403Z,85.9
2022-12-15T12:31:10.645Z,86
2022-12-15T12:32:26.892Z,85.7
2022-12-15T12:33:43.142Z,85.6
2022-12-15T12:34:59.374Z,85.9
2022-12-15T12:36:15.630Z,85.6
2022-12-15T12:37:31.871Z,85
2022-12-15T12:38:48.110Z,85.3
2022-12-15T12:40:03.360Z,85.7
2022-12-15T12:41:19.604Z,85.9
2022-12-15T12:42:35.849Z,85.8
2022-12-15T12:43:52.082Z,85.1
2022-12-15T12:45:08.334Z,84.5
2022-12-15T12:46:24.565Z,84.4
2022-12-15T12:47:40.807Z,84.3
2022-12-15T12:48:57.058Z,84.6
2022-12-15T12:50:13.294Z,84.8
2022-12-15T12:51:29.529Z,84.8
2022-12-15T12:52:45.780Z,84.4
2022-12-15T12:54:02.009Z,84.5
2022-12-15T12:55:18.243Z,84.4
2022-12-15T12:56:33.523Z,84.4
2022-12-15T12:57:49.759Z,84.3
2022-12-15T12:59:05.998Z,84.2
2022-12-15T13:00:22.240Z,84.3
2022-12-15T13:01:38.487Z,84.4
2022-12-15T13:02:53.737Z,84.5
2022-12-15T13:04:08.996Z,84.2
2022-12-15T13:05:25.240Z,83.8
2022-12-15T13:06:41.479Z,83.9
2022-12-15T13:07:57.729Z,84.4
2022-12-15T13:09:13.962Z,84.6
2022-12-15T13:10:29.230Z,84.9
2022-12-15T13:11:44.480Z,85
2022-12-15T13:13:00.720Z,84
2022-12-15T13:14:16.959Z,83.8
2022-12-15T13:15:33.208Z,83.8
2022-12-15T13:16:49.444Z,83.5
2022-12-15T13:18:05.681Z,83.7
2022-12-15T13:19:21.937Z,83.3
2022-12-15T13:20:38.165Z,83.9
2022-12-15T13:21:54.427Z,84.2
2022-12-15T13:24:26.907Z,84.1
2022-12-15T13:25:43.140Z,84.1
2022-12-15T13:26:59.383Z,84.2
2022-12-15T13:28:14.632Z,83.9
2022-12-15T13:29:30.881Z,83.9
2022-12-15T13:30:47.113Z,83.5
2022-12-15T13:32:03.361Z,83.2
2022-12-15T13:33:19.596Z,83.1
2022-12-15T13:34:35.000Z,83.3
2022-12-15T13:35:52.085Z,83.5
2022-12-15T13:37:08.337Z,84.2
2022-12-15T13:38:24.571Z,83.9
2022-12-15T13:39:40.824Z,83.5
2022-12-15T13:42:13.290Z,84
2022-12-15T13:43:29.539Z,83.7
2022-12-15T13:44:44.803Z,83.7
2022-12-15T13:46:01.037Z,82.9
2022-12-15T13:47:17.283Z,82.8
2022-12-15T13:48:33.528Z,83.3
2022-12-15T13:49:49.769Z,83.1
2022-12-15T13:51:06.001Z,83.3
2022-12-15T13:52:22.249Z,83.7
2022-12-15T13:53:38.487Z,83.9
2022-12-15T13:54:54.718Z,84
2022-12-15T13:56:10.967Z,83.9
2022-12-15T13:57:27.209Z,84
2022-12-15T13:58:43.455Z,83.5
2022-12-15T13:59:59.691Z,83.7
2022-12-15T14:01:14.949Z,83.7
2022-12-15T14:02:31.182Z,82.9
2022-12-15T14:03:47.426Z,82.9
2022-12-15T14:05:03.673Z,82.9
2022-12-15T14:06:19.926Z,82.7
2022-12-15T14:07:36.164Z,82.9
2022-12-15T14:08:52.398Z,82.8
2022-12-15T14:10:08.648Z,83
2022-12-15T14:11:24.877Z,83.1
2022-12-15T14:12:41.133Z,83.1
2022-12-15T14:13:57.367Z,83.4
2022-12-15T14:15:13.604Z,83.7
2022-12-15T14:16:29.845Z,83.7
2022-12-15T14:17:45.105Z,83.5
2022-12-15T14:19:01.344Z,83.6
2022-12-15T14:20:17.582Z,83.7
2022-12-15T14:21:33.827Z,83.8
2022-12-15T14:22:50.067Z,83.6
2022-12-15T14:24:06.315Z,83.7
2022-12-15T14:25:22.555Z,83.7
2022-12-15T14:26:38.792Z,83.7
2022-12-15T14:27:55.038Z,84
2022-12-15T14:29:11.276Z,84.3
2022-12-15T14:30:27.524Z,84.6
2022-12-15T14:31:43.760Z,84.4
2022-12-15T14:33:00.007Z,84.4
2022-12-15T14:34:15.251Z,84.4
2022-12-15T14:35:31.510Z,84.5
2022-12-15T14:36:47.740Z,84.6
2022-12-15T14:38:03.995Z,84.8
2022-12-15T14:39:20.220Z,84.9
2022-12-15T14:40:36.462Z,85.2
2022-12-15T14:41:52.706Z,85.3
2022-12-15T14:43:08.950Z,85.5
2022-12-15T14:44:25.194Z,85.5
2022-12-15T14:45:41.437Z,85.7
2022-12-15T14:46:57.670Z,85.6
2022-12-15T14:48:13.916Z,85.5
2022-12-15T14:49:30.153Z,85.8
2022-12-15T14:50:45.408Z,85.8
2022-12-15T14:52:01.659Z,86.2
2022-12-15T14:53:17.901Z,86.5
2022-12-15T14:54:34.136Z,86.7
2022-12-15T14:55:50.390Z,87
2022-12-15T14:57:06.616Z,87.2
2022-12-15T14:58:22.863Z,87.3
2022-12-15T14:59:39.117Z,87.4
2022-12-15T15:00:55.347Z,87.7
2022-12-15T15:02:11.588Z,88
2022-12-15T15:03:27.827Z,88.3
2022-12-15T15:04:44.083Z,88.6
2022-12-15T15:06:00.308Z,89
2022-12-15T15:07:15.578Z,89.1
2022-12-15T15:08:31.816Z,89.3
2022-12-15T15:09:48.052Z,89.4
2022-12-15T15:11:04.301Z,89.6
2022-12-15T15:12:20.529Z,89.9
2022-12-15T15:13:36.788Z,89.9
2022-12-15T15:14:53.024Z,89.8
2022-12-15T15:16:09.264Z,90.1
2022-12-15T15:17:25.504Z,90.2
2022-12-15T15:18:41.744Z,90.1
2022-12-15T15:19:57.984Z,90.4
2022-12-15T15:21:14.237Z,90.5
2022-12-15T15:22:30.477Z,91
2022-12-15T15:23:45.730Z,91.4
2022-12-15T15:26:18.210Z,91.3
2022-12-15T15:27:34.435Z,91.4
2022-12-15T15:28:50.695Z,91.6
2022-12-15T15:30:06.937Z,91.3
2022-12-15T15:31:23.174Z,91.2
2022-12-15T15:32:39.413Z,91.4
2022-12-15T15:33:55.656Z,91.7
2022-12-15T15:35:11.901Z,91.7
2022-12-15T15:36:28.145Z,91.7
2022-12-15T15:37:44.379Z,91.7
2022-12-15T15:39:00.690Z,91.5
2022-12-15T15:41:32.294Z,90.8
2022-12-15T15:42:48.722Z,91
2022-12-15T15:44:05.004Z,91.3
2022-12-15T15:45:21.306Z,91.3
2022-12-15T15:46:37.607Z,91.3
2022-12-15T15:47:53.896Z,91
2022-12-15T15:49:10.182Z,91.4
2022-12-15T15:50:26.475Z,91.3
2022-12-15T15:51:42.773Z,90.8
2022-12-15T15:52:59.085Z,91
2022-12-15T15:54:15.368Z,91
2022-12-15T15:55:31.667Z,91.5
2022-12-15T15:56:47.966Z,91.8
2022-12-15T15:58:04.000Z,91.8
2022-12-15T15:59:19.570Z,91.9
2022-12-15T16:00:35.863Z,91.8
2022-12-15T16:01:52.165Z,91.8
2022-12-15T16:03:08.454Z,91.7
2022-12-15T16:04:24.765Z,91.6
2022-12-15T16:05:41.045Z,91.7
2022-12-15T16:06:57.339Z,91.7
2022-12-15T16:08:13.636Z,91.6
2022-12-15T16:09:29.938Z,91.5
2022-12-15T16:10:46.226Z,91.7
2022-12-15T16:12:02.521Z,91.8
2022-12-15T16:13:18.821Z,91.9
2022-12-15T16:14:35.130Z,91.7
2022-12-15T16:15:50.433Z,91.4
2022-12-15T16:17:06.722Z,91.1
2022-12-15T16:18:23.033Z,91.1
2022-12-15T16:19:39.307Z,91.1
2022-12-15T16:20:55.624Z,91.3
2022-12-15T16:22:11.909Z,91
2022-12-15T16:23:28.206Z,91.1
2022-12-15T16:24:44.509Z,91.6
2022-12-15T16:26:00.795Z,91.9
2022-12-15T16:27:17.091Z,91.6
2022-12-15T16:28:33.394Z,91.2
2022-12-15T16:29:49.682Z,91.2
2022-12-15T16:31:05.984Z,91.5
2022-12-15T16:32:21.295Z,91.9
2022-12-15T16:33:37.581Z,92.1
2022-12-15T16:34:53.880Z,92.2
2022-12-15T16:36:10.186Z,92.2
2022-12-15T16:37:26.479Z,92.2
2022-12-15T16:38:42.773Z,92.2
2022-12-15T16:39:59.059Z,91.9
2022-12-15T16:41:15.361Z,91.7
2022-12-15T16:42:31.667Z,91.6
2022-12-15T16:43:47.938Z,91.7
2022-12-15T16:45:04.257Z,92.1
2022-12-15T16:46:20.547Z,92.4
2022-12-15T16:47:36.839Z,92.7
2022-12-15T16:48:52.150Z,92.7
2022-12-15T16:50:08.443Z,92.7
2022-12-15T16:51:24.743Z,92.7
2022-12-15T16:52:41.044Z,92.7
2022-12-15T16:53:57.343Z,92.5
2022-12-15T16:55:13.628Z,92.5
2022-12-15T16:56:29.930Z,92.4
2022-12-15T16:57:46.224Z,92
2022-12-15T16:59:02.501Z,91.9
2022-12-15T17:00:18.816Z,92
2022-12-15T17:01:35.110Z,92.1
2022-12-15T17:02:51.401Z,91.6
2022-12-15T17:04:07.702Z,91.4
2022-12-15T17:05:23.010Z,91.1
2022-12-15T17:06:39.301Z,90.3
2022-12-15T17:07:55.614Z,90.4
2022-12-15T17:09:11.908Z,91.5
2022-12-15T17:10:28.202Z,91.9
2022-12-15T17:11:44.487Z,91.9
2022-12-15T17:13:00.780Z,92.2
2022-12-15T17:14:17.089Z,92.5
2022-12-15T17:15:33.382Z,92.5
2022-12-15T17:16:49.676Z,92.3
2022-12-15T17:18:05.972Z,92.5
2022-12-15T17:19:22.266Z,92.6
2022-12-15T17:20:38.554Z,92.5
2022-12-15T17:21:54.985Z,92.5
2022-12-15T17:23:11.268Z,92.7
2022-12-15T17:24:27.574Z,92.6
2022-12-15T17:25:43.865Z,92.4
2022-12-15T17:27:00.155Z,92.5
2022-12-15T17:28:16.448Z,92.6
2022-12-15T17:29:32.745Z,92.7
2022-12-15T17:30:49.047Z,92.3
2022-12-15T17:32:05.347Z,91.7
2022-12-15T17:33:21.643Z,91.6
2022-12-15T17:34:37.934Z,91.6
2022-12-15T17:35:54.228Z,91.4
2022-12-15T17:37:10.523Z,91.6
2022-12-15T17:38:25.849Z,91.4
2022-12-15T17:39:42.128Z,91.3
2022-12-15T17:40:58.441Z,91.4
2022-12-15T17:42:14.720Z,92
2022-12-15T17:43:31.022Z,92.8
2022-12-15T17:44:47.311Z,93.5
2022-12-15T17:46:03.611Z,93.9
2022-12-15T17:47:19.903Z,94.2
2022-12-15T17:48:36.220Z,94.3
2022-12-15T17:49:52.493Z,94
2022-12-15T17:51:08.797Z,93.6
2022-12-15T17:52:25.090Z,93
2022-12-15T17:53:41.389Z,92.5
2022-12-15T17:54:56.708Z,92.9
2022-12-15T17:56:13.002Z,92.7
2022-12-15T17:57:29.287Z,92.6
2022-12-15T17:58:45.583Z,92.4
2022-12-15T18:00:01.883Z,92
2022-12-15T18:01:18.177Z,91.7
2022-12-15T18:02:34.466Z,91.4
2022-12-15T18:03:50.762Z,91.3
2022-12-15T18:05:07.059Z,90.8
2022-12-15T18:06:23.355Z,89.8
2022-12-15T18:07:39.663Z,89.4
2022-12-15T18:08:55.949Z,89.4
2022-12-15T18:10:12.252Z,89.3
2022-12-15T18:11:27.560Z,89.4
2022-12-15T18:12:43.867Z,89.9
2022-12-15T18:14:00.152Z,90.1
2022-12-15T18:15:16.460Z,90.6
2022-12-15T18:16:32.754Z,90.9
2022-12-15T18:17:49.039Z,91.4
2022-12-15T18:19:05.343Z,91.9
2022-12-15T18:20:21.637Z,92.1
2022-12-15T18:21:37.926Z,91.8
2022-12-15T18:22:54.232Z,91.3
2022-12-15T18:24:10.523Z,90.7
2022-12-15T18:25:26.825Z,89.3
2022-12-15T18:26:43.121Z,88.8
2022-12-15T18:27:58.420Z,89
2022-12-15T18:29:14.716Z,89.8
2022-12-15T18:30:31.020Z,91.1
2022-12-15T18:31:47.309Z,91.5
2022-12-15T18:33:03.599Z,91.3
2022-12-15T18:34:19.895Z,90.2
2022-12-15T18:35:36.194Z,89.7
2022-12-15T18:36:52.490Z,90.5
2022-12-15T18:38:08.789Z,91.6
2022-12-15T18:39:25.085Z,92.5
2022-12-15T18:40:41.387Z,93.3
2022-12-15T18:41:57.686Z,94
2022-12-15T18:43:13.972Z,94.4
2022-12-15T18:44:29.293Z,94.5
2022-12-15T18:45:45.596Z,94.8
2022-12-15T18:47:01.890Z,94.9
2022-12-15T18:48:18.171Z,94.9
2022-12-15T18:49:34.481Z,94.9
2022-12-15T18:50:50.765Z,94.7
2022-12-15T18:52:07.059Z,94.3
2022-12-15T18:53:23.370Z,94.3
2022-12-15T18:54:39.648Z,94
2022-12-15T18:55:55.947Z,93.8
2022-12-15T18:57:12.247Z,94.1
2022-12-15T18:58:28.551Z,94.8
2022-12-15T18:59:44.841Z,95.1
2022-12-15T19:01:00.153Z,95.7
2022-12-15T19:02:16.438Z,96
2022-12-15T19:03:32.742Z,96.2
2022-12-15T19:04:49.028Z,96.3
2022-12-15T19:06:05.331Z,96
2022-12-15T19:07:21.628Z,96
2022-12-15T19:08:37.930Z,95.6
2022-12-15T19:09:54.224Z,95.4
2022-12-15T19:11:10.513Z,95.4
2022-12-15T19:12:26.819Z,95.4
2022-12-15T19:13:43.121Z,95
2022-12-15T19:14:59.417Z,94
2022-12-15T19:16:15.706Z,93
2022-12-15T19:17:31.011Z,92.5
2022-12-15T19:18:47.315Z,92.5
2022-12-15T19:20:03.608Z,92.6
2022-12-15T19:21:19.895Z,93
2022-12-15T19:22:36.207Z,93.3
2022-12-15T19:23:52.485Z,93.5
2022-12-15T19:25:08.787Z,93.7
2022-12-15T19:26:25.076Z,93.4
2022-12-15T19:27:41.381Z,93.4
2022-12-15T19:28:57.670Z,93.4
2022-12-15T19:30:13.965Z,92.8
2022-12-15T19:31:30.269Z,92.5
2022-12-15T19:32:46.570Z,92.7
2022-12-15T19:34:01.888Z,93
2022-12-15T19:35:18.184Z,93.1
2022-12-15T19:36:34.466Z,93.5
2022-12-15T19:37:50.757Z,94.5
2022-12-15T19:39:07.066Z,95
2022-12-15T19:40:23.358Z,95.5
2022-12-15T19:41:39.665Z,95.7
2022-12-15T19:42:55.954Z,95.5
2022-12-15T19:45:28.541Z,95.1
2022-12-15T19:46:44.836Z,95
2022-12-15T19:48:01.143Z,94.7
2022-12-15T19:49:17.437Z,94.5
2022-12-15T19:50:32.747Z,94.1
2022-12-15T19:51:49.031Z,93.2
2022-12-15T19:53:05.326Z,92.4
2022-12-15T19:54:21.622Z,92.2
2022-12-15T19:55:37.934Z,92
2022-12-15T19:56:54.215Z,91.8
2022-12-15T19:58:09.539Z,91.2
2022-12-15T19:59:25.844Z,90.9
2022-12-15T20:00:42.131Z,90.9
2022-12-15T20:01:58.421Z,91.1
2022-12-15T20:03:14.723Z,90.9
2022-12-15T20:04:31.019Z,90.1
2022-12-15T20:05:47.313Z,89.9
2022-12-15T20:07:03.609Z,90.2
2022-12-15T20:08:19.902Z,90.5
2022-12-15T20:09:36.200Z,91.1
2022-12-15T20:10:52.497Z,91.4
2022-12-15T20:12:08.799Z,91.6
2022-12-15T20:13:25.081Z,90.6
2022-12-15T20:15:56.690Z,92.1
2022-12-15T20:17:12.986Z,92.5
2022-12-15T20:18:29.287Z,93.3
2022-12-15T20:19:45.596Z,94.4
2022-12-15T20:21:01.876Z,94.6
2022-12-15T20:23:34.479Z,93.5
2022-12-15T20:24:50.768Z,92.9
2022-12-15T20:26:07.062Z,93.5
2022-12-15T20:27:23.364Z,94.3
2022-12-15T20:28:39.655Z,93.8
2022-12-15T20:29:55.944Z,93.2
2022-12-15T20:31:11.256Z,92.7
2022-12-15T20:32:27.563Z,92.8
2022-12-15T20:33:43.857Z,92.3
2022-12-15T20:35:00.155Z,91.3
2022-12-15T20:36:16.459Z,90.5
2022-12-15T20:37:32.747Z,89.1